createdAt,value
2019-03-27T00:00:03.077Z,11.80
2019-03-27T00:05:02.609Z,18.07
2019-03-27T00:10:03.057Z,11.97
2019-03-27T00:15:12.856Z,9.05
2019-03-27T00:20:03.139Z,14.68
2019-03-27T00:25:02.540Z,12.28
2019-03-27T00:30:02.871Z,11.00
2019-03-27T00:35:03.229Z,12.23
2019-03-27T00:40:02.640Z,11.25
2019-03-27T00:45:02.975Z,11.25
2019-03-27T00:50:03.320Z,15.10
2019-03-27T00:55:02.727Z,14.35
2019-03-27T01:00:03.075Z,14.47
2019-03-27T01:05:02.704Z,13.32
2019-03-27T01:10:03.146Z,15.53
2019-03-27T01:15:02.473Z,9.88
2019-03-27T01:20:02.102Z,0
2019-03-27T01:25:02.520Z,9.78
2019-03-27T01:30:02.840Z,13.22
2019-03-27T01:35:03.210Z,11.18
2019-03-27T01:40:02.620Z,11.30
2019-03-27T01:45:02.972Z,13.72
2019-03-27T01:50:02.384Z,10.65
2019-03-27T01:55:02.737Z,11.50
2019-03-27T02:00:03.071Z,11.05
2019-03-27T02:05:02.488Z,9.75
2019-03-27T02:10:02.870Z,11.45
2019-03-27T02:15:03.272Z,10.95
2019-03-27T02:20:02.687Z,11.65
2019-03-27T02:25:03.027Z,7.37
2019-03-27T02:30:02.457Z,14.68
2019-03-27T02:35:02.800Z,10.65
2019-03-27T02:40:03.246Z,14.15
2019-03-27T02:45:02.559Z,13.05
2019-03-27T02:50:02.998Z,10.13
2019-03-27T02:55:02.337Z,11.85
2019-03-27T03:00:02.751Z,8.03
2019-03-27T03:05:03.111Z,13.05
2019-03-27T03:10:02.514Z,12.13
2019-03-27T03:15:02.867Z,12.28
2019-03-27T03:20:03.298Z,8.78
2019-03-27T03:25:02.723Z,9.15
2019-03-27T03:30:03.116Z,14.23
2019-03-27T03:35:02.489Z,11.08
2019-03-27T03:40:02.938Z,16.40
2019-03-27T03:45:03.264Z,11.93
2019-03-27T03:50:02.680Z,13.25
2019-03-27T03:55:02.270Z,0
2019-03-27T04:00:02.619Z,14.10
2019-03-27T04:05:02.992Z,13.88
2019-03-27T04:10:02.445Z,13.15
2019-03-27T04:15:02.856Z,15.20
2019-03-27T04:20:03.307Z,18.25
2019-03-27T04:25:02.723Z,13.88
2019-03-27T04:30:03.163Z,15.48
2019-03-27T04:35:02.574Z,21.65
2019-03-27T04:40:03.025Z,14.85
2019-03-27T04:45:02.371Z,21.00
2019-03-27T04:50:02.781Z,13.53
2019-03-27T04:55:03.130Z,17.95
2019-03-27T05:00:02.537Z,12.70
2019-03-27T05:05:02.865Z,14.60
2019-03-27T05:10:03.321Z,12.88
2019-03-27T05:15:02.746Z,12.93
2019-03-27T05:20:03.089Z,10.98
2019-03-27T05:25:02.493Z,19.37
2019-03-27T05:30:02.336Z,13.95
2019-03-27T05:35:02.787Z,12.05
2019-03-27T05:40:03.225Z,11.40
2019-03-27T05:45:02.653Z,19.82
2019-03-27T05:50:03.089Z,18.98
2019-03-27T05:55:02.506Z,20.55
2019-03-27T06:00:02.857Z,13.45
2019-03-27T06:05:03.285Z,14.50
2019-03-27T06:10:02.710Z,17.20
2019-03-27T06:15:03.050Z,22.45
2019-03-27T06:20:02.672Z,28.98
2019-03-27T06:25:03.030Z,13.85
2019-03-27T06:30:02.376Z,16.48
2019-03-27T06:35:02.789Z,17.95
2019-03-27T06:40:03.224Z,13.78
2019-03-27T06:45:01.786Z,0
2019-03-27T06:50:03.177Z,15.32
2019-03-27T06:55:02.512Z,20.95
2019-03-27T07:00:03.251Z,29.48
2019-03-27T07:05:02.574Z,25.37
2019-03-27T07:10:03.124Z,32.98
2019-03-27T07:15:02.522Z,21.02
2019-03-27T07:20:02.859Z,20.92
2019-03-27T07:25:03.211Z,21.75
2019-03-27T07:30:02.638Z,14.30
2019-03-27T07:35:02.977Z,19.42
2019-03-27T07:40:02.406Z,24.02
2019-03-27T07:45:02.831Z,26.33
2019-03-27T07:50:03.176Z,16.95
2019-03-27T07:55:02.595Z,14.70
2019-03-27T08:00:03.039Z,17.80
2019-03-27T08:05:02.566Z,16.40
2019-03-27T08:10:03.010Z,14.13
2019-03-27T08:15:02.434Z,20.35
2019-03-27T08:20:02.970Z,16.23
2019-03-27T08:25:02.382Z,19.12
2019-03-27T08:30:02.823Z,9.88
2019-03-27T08:35:03.173Z,7.75
2019-03-27T08:40:02.563Z,8.38
2019-03-27T08:45:02.931Z,9.83
2019-03-27T08:50:03.272Z,7.58
2019-03-27T08:55:02.701Z,7.17
2019-03-27T09:00:03.149Z,10.85
2019-03-27T09:05:02.553Z,9.10
2019-03-27T09:10:02.999Z,7.97
2019-03-27T09:15:02.417Z,8.65
2019-03-27T09:20:02.863Z,9.25
2019-03-27T09:25:02.393Z,0
2019-03-27T09:30:02.816Z,6.90
2019-03-27T09:35:03.160Z,7.90
2019-03-27T09:40:02.574Z,4.92
2019-03-27T09:45:02.923Z,7.78
2019-03-27T09:50:03.279Z,4.40
2019-03-27T09:55:02.678Z,8.73
2019-03-27T10:00:03.024Z,12.58
2019-03-27T10:05:02.471Z,8.25
2019-03-27T10:10:02.990Z,7.83
2019-03-27T10:15:02.415Z,7.78
2019-03-27T10:20:03.968Z,5.87
2019-03-27T10:25:02.779Z,5.92
2019-03-27T10:30:03.128Z,8.35
2019-03-27T10:35:02.449Z,9.18
2019-03-27T10:40:02.892Z,4.95
2019-03-27T10:45:03.337Z,5.45
2019-03-27T10:50:16.613Z,6.53
2019-03-27T10:55:03.094Z,5.97
2019-03-27T11:00:02.498Z,6.03
2019-03-27T11:05:02.846Z,6.33
2019-03-27T11:10:03.299Z,4.78
2019-03-27T11:15:02.650Z,5.22
2019-03-27T11:20:03.044Z,8.58
2019-03-27T11:25:02.465Z,6.35
2019-03-27T11:30:02.919Z,7.58
2019-03-27T11:35:03.355Z,7.50
2019-03-27T11:40:02.794Z,5.42
2019-03-27T11:45:03.222Z,6.75
2019-03-27T11:50:02.630Z,6.45
2019-03-27T11:55:03.009Z,5.92
2019-03-27T12:00:02.400Z,6.45
2019-03-27T12:05:02.852Z,4.50
2019-03-27T12:10:02.486Z,0
2019-03-27T12:15:02.899Z,3.80
2019-03-27T12:20:03.259Z,6.08
2019-03-27T12:25:02.658Z,6.22
2019-03-27T12:30:03.014Z,5.25
2019-03-27T12:35:02.428Z,8.33
2019-03-27T12:40:11.019Z,6.60
2019-03-27T12:45:02.509Z,3.40
2019-03-27T12:50:02.945Z,10.30
2019-03-27T12:55:03.381Z,4.90
2019-03-27T13:00:02.801Z,5.50
2019-03-27T13:05:03.141Z,7.53
2019-03-27T13:10:02.692Z,4.12
2019-03-27T13:15:03.142Z,4.75
2019-03-27T13:20:02.549Z,5.62
2019-03-27T13:25:02.994Z,7.20
2019-03-27T13:30:02.316Z,4.72
2019-03-27T13:35:02.762Z,6.72
2019-03-27T13:40:03.169Z,7.92
2019-03-27T13:45:02.621Z,5.50
2019-03-27T13:50:03.054Z,5.10
2019-03-27T13:55:02.487Z,4.28
2019-03-27T14:00:02.928Z,6.00
2019-03-27T14:05:03.263Z,3.92
2019-03-27T14:10:02.784Z,4.03
2019-03-27T14:15:03.198Z,7.80
2019-03-27T14:20:02.640Z,4.47
2019-03-27T14:25:03.057Z,13.68
2019-03-27T14:30:02.508Z,8.95
2019-03-27T14:35:02.921Z,3.02
2019-03-27T14:40:02.339Z,4.03
2019-03-27T14:45:01.867Z,0
2019-03-27T14:50:03.335Z,8.13
2019-03-27T14:55:03.235Z,3.08
2019-03-27T15:00:02.872Z,3.98
2019-03-27T15:05:03.216Z,4.30
2019-03-27T15:10:02.640Z,5.28
2019-03-27T15:15:02.983Z,6.60
2019-03-27T15:20:02.391Z,7.95
2019-03-27T15:25:02.841Z,8.78
2019-03-27T15:30:03.183Z,7.53
2019-03-27T15:35:02.525Z,4.67
2019-03-27T15:40:02.953Z,3.77
2019-03-27T15:45:03.404Z,3.92
2019-03-27T15:50:02.802Z,6.40
2019-03-27T15:55:03.133Z,5.15
2019-03-27T16:00:02.556Z,3.40
2019-03-27T16:05:03.005Z,4.65
2019-03-27T16:10:02.425Z,5.30
2019-03-27T16:15:02.769Z,3.37
2019-03-27T16:20:03.207Z,4.05
2019-03-27T16:25:02.627Z,3.92
2019-03-27T16:30:03.087Z,3.87
2019-03-27T16:35:02.501Z,6.40
2019-03-27T16:40:02.939Z,5.05
2019-03-27T16:45:03.277Z,6.67
2019-03-27T16:50:02.728Z,3.58
2019-03-27T16:55:03.088Z,3.65
2019-03-27T17:00:02.484Z,3.75
2019-03-27T17:05:02.936Z,5.00
2019-03-27T17:10:02.477Z,3.55
2019-03-27T17:15:02.896Z,6.45
2019-03-27T17:20:03.509Z,5.12
2019-03-27T17:25:02.933Z,4.53
2019-03-27T17:30:02.461Z,0
2019-03-27T17:35:02.784Z,5.70
2019-03-27T17:40:03.237Z,5.60
2019-03-27T17:45:02.660Z,4.95
2019-03-27T17:50:02.990Z,5.08
2019-03-27T17:55:02.410Z,5.60
2019-03-27T18:00:02.860Z,4.58
2019-03-27T18:05:03.200Z,5.62
2019-03-27T18:10:02.629Z,4.65
2019-03-27T18:15:03.063Z,6.67
2019-03-27T18:20:02.472Z,5.28
2019-03-27T18:25:02.829Z,5.67
2019-03-27T18:30:03.260Z,5.37
2019-03-27T18:35:02.695Z,5.97
2019-03-27T18:40:03.129Z,4.50
2019-03-27T18:45:02.553Z,6.47
2019-03-27T18:50:02.997Z,8.45
2019-03-27T18:55:02.329Z,7.95
2019-03-27T19:00:02.739Z,9.58
2019-03-27T19:05:03.098Z,13.85
2019-03-27T19:10:02.607Z,13.08
2019-03-27T19:15:03.064Z,5.12
2019-03-27T19:20:02.474Z,5.72
2019-03-27T19:25:02.909Z,8.43
2019-03-27T19:30:03.301Z,7.97
2019-03-27T19:35:02.686Z,7.15
2019-03-27T19:40:03.130Z,5.92
2019-03-27T19:45:02.531Z,8.95
2019-03-27T19:50:02.983Z,5.70
2019-03-27T19:55:02.406Z,8.65
2019-03-27T20:00:02.103Z,0
2019-03-27T20:05:02.467Z,5.62
2019-03-27T20:10:02.900Z,9.50
2019-03-27T20:15:11.926Z,6.75
2019-03-27T20:20:03.074Z,8.68
2019-03-27T20:25:02.606Z,6.90
2019-03-27T20:30:03.150Z,6.05
2019-03-27T20:35:02.577Z,4.95
2019-03-27T20:40:02.957Z,4.70
2019-03-27T20:45:03.348Z,7.30
2019-03-27T20:50:02.785Z,9.03
2019-03-27T20:55:03.219Z,11.35
2019-03-27T21:00:02.626Z,15.48
2019-03-27T21:05:02.970Z,9.03
2019-03-27T21:10:02.397Z,6.80
2019-03-27T21:15:02.739Z,9.45
2019-03-27T21:20:03.178Z,7.35
2019-03-27T21:25:08.503Z,8.70
2019-03-27T21:30:03.253Z,6.70
2019-03-27T21:35:02.705Z,10.30
2019-03-27T21:40:03.249Z,10.45
2019-03-27T21:45:02.669Z,7.72
2019-03-27T21:50:03.109Z,9.00
2019-03-27T21:55:02.525Z,5.47
2019-03-27T22:00:02.981Z,7.45
2019-03-27T22:05:02.395Z,4.72
2019-03-27T22:10:02.978Z,4.60
2019-03-27T22:15:02.491Z,5.20
2019-03-27T22:20:02.899Z,5.15
2019-03-27T22:25:03.351Z,5.10
2019-03-27T22:30:02.797Z,5.72
2019-03-27T22:35:03.676Z,4.40
2019-03-27T22:40:03.135Z,7.40
2019-03-27T22:45:06.710Z,0
2019-03-27T22:50:03.091Z,6.22
2019-03-27T22:55:02.519Z,6.15
2019-03-27T23:00:02.953Z,5.47
2019-03-27T23:05:03.409Z,5.03
2019-03-27T23:10:02.927Z,5.85
2019-03-27T23:15:03.375Z,5.53
2019-03-27T23:20:02.782Z,4.33
2019-03-27T23:25:03.338Z,5.72
2019-03-27T23:30:02.913Z,5.20
2019-03-27T23:35:03.304Z,4.78
2019-03-27T23:40:02.824Z,6.17
2019-03-27T23:45:02.456Z,0
2019-03-27T23:50:02.896Z,6.12
2019-03-27T23:55:03.328Z,7.35
